createdAt,value
2022-07-27T00:03:15.895Z,96694.00
2022-07-27T00:08:19.501Z,96701.38
2022-07-27T00:13:23.053Z,96706.84
2022-07-27T00:18:26.817Z,96703.19
2022-07-27T00:23:30.529Z,96707.03
2022-07-27T00:28:34.257Z,96713.13
2022-07-27T00:33:40.652Z,96708.31
2022-07-27T00:38:44.004Z,96705.91
2022-07-27T00:43:58.896Z,96707.03
2022-07-27T00:49:02.530Z,96708.94
2022-07-27T00:54:06.570Z,96711.84
2022-07-27T00:59:12.186Z,96702.06
2022-07-27T01:04:16.175Z,96708.97
2022-07-27T01:09:20.144Z,96711.53
2022-07-27T01:14:23.913Z,96714.09
2022-07-27T01:19:32.774Z,96710.88
2022-07-27T01:24:36.591Z,96714.72
2022-07-27T01:29:40.907Z,96716.31
2022-07-27T01:34:44.821Z,96715.06
2022-07-27T01:39:48.213Z,96707.50
2022-07-27T01:44:51.909Z,96707.50
2022-07-27T01:49:55.555Z,96710.22
2022-07-27T01:54:59.119Z,96707.84
2022-07-27T02:00:09.811Z,96713.28
2022-07-27T02:05:17.133Z,96714.41
2022-07-27T02:10:20.657Z,96713.13
2022-07-27T02:15:27.166Z,96717.13
2022-07-27T02:20:31.427Z,96709.28
2022-07-27T02:25:35.282Z,96712.66
2022-07-27T02:30:38.761Z,96709.59
2022-07-27T02:35:44.966Z,96708.94
2022-07-27T02:40:53.496Z,96706.72
2022-07-27T02:45:56.995Z,96712.31
2022-07-27T02:51:01.695Z,96707.50
2022-07-27T02:56:05.477Z,96722.13
2022-07-27T03:01:09.097Z,96723.56
2022-07-27T03:06:12.457Z,96713.59
2022-07-27T03:11:16.202Z,96721.59
2022-07-27T03:16:20.192Z,96724.97
2022-07-27T03:21:24.369Z,96725.16
2022-07-27T03:26:28.175Z,96729.59
2022-07-27T03:31:31.945Z,96741.97
2022-07-27T03:36:35.531Z,96748.84
2022-07-27T03:41:39.648Z,96743.44
2022-07-27T03:46:43.051Z,96738.09
2022-07-27T03:51:46.817Z,96733.94
2022-07-27T03:56:50.433Z,96746.47
2022-07-27T04:01:54.626Z,96747.25
2022-07-27T04:06:58.623Z,96739.69
2022-07-27T04:12:02.169Z,96746.94
2022-07-27T04:17:06.620Z,96752.03
2022-07-27T04:22:10.876Z,96757.25
2022-07-27T04:27:14.391Z,96754.38
2022-07-27T04:32:17.805Z,96758.69
2022-07-27T04:37:21.347Z,96762.22
2022-07-27T04:42:25.450Z,96767.97
2022-07-27T04:47:28.848Z,96776.06
2022-07-27T04:52:32.478Z,96780.66
2022-07-27T04:57:36.467Z,96775.03
2022-07-27T05:02:43.087Z,96783.84
2022-07-27T05:07:46.620Z,96786.03
2022-07-27T05:12:50.325Z,96793.78
2022-07-27T05:17:54.248Z,96794.84
2022-07-27T05:22:57.930Z,96802.94
2022-07-27T05:28:01.751Z,96798.50
2022-07-27T05:33:05.606Z,96797.94
2022-07-27T05:38:09.265Z,96803.81
2022-07-27T05:43:12.774Z,96798.81
2022-07-27T05:48:16.278Z,96803.38
2022-07-27T05:53:20.243Z,96795.94
2022-07-27T05:58:24.836Z,96801.53
2022-07-27T06:03:28.399Z,96799.69
2022-07-27T06:08:33.001Z,96801.75
2022-07-27T06:13:36.663Z,96798.09
2022-07-27T06:18:40.345Z,96798.16
2022-07-27T06:23:44.026Z,96799.50
2022-07-27T06:28:47.952Z,96806.81
2022-07-27T06:33:52.223Z,96801.66
2022-07-27T06:38:55.762Z,96804.78
2022-07-27T06:43:59.259Z,96793.97
2022-07-27T06:49:03.151Z,96793.97
2022-07-27T06:54:06.821Z,96794.69
2022-07-27T06:59:10.563Z,96804.22
2022-07-27T07:04:14.355Z,96806.44
2022-07-27T07:09:18.397Z,96806.09
2022-07-27T07:14:22.402Z,96811.19
2022-07-27T07:19:26.165Z,96805.94
2022-07-27T07:24:29.710Z,96801.31
2022-07-27T07:29:34.089Z,96815.88
2022-07-27T07:34:37.632Z,96814.09
2022-07-27T07:39:41.328Z,96824.09
2022-07-27T07:44:44.936Z,96823.94
2022-07-27T07:49:48.520Z,96823.13
2022-07-27T07:54:52.035Z,96826.31
2022-07-27T07:59:55.364Z,96828.16
2022-07-27T08:05:00.277Z,96824.03
2022-07-27T08:10:05.328Z,96827.78
2022-07-27T08:15:09.466Z,96818.41
2022-07-27T08:20:15.635Z,96828.22
2022-07-27T08:25:19.246Z,96817.75
2022-07-27T08:30:22.924Z,96825.72
2022-07-27T08:35:29.391Z,96823.81
2022-07-27T08:40:40.637Z,96817.09
2022-07-27T08:45:52.961Z,96815.16
2022-07-27T08:50:56.587Z,96802.50
2022-07-27T08:56:00.959Z,96808.88
2022-07-27T09:01:04.555Z,96812.41
2022-07-27T09:06:08.127Z,96812.31
2022-07-27T09:11:15.715Z,96799.50
2022-07-27T09:17:03.046Z,96802.16
2022-07-27T09:21:53.302Z,96810.28
2022-07-27T09:27:05.061Z,96812.09
2022-07-27T09:32:16.160Z,96810.38
2022-07-27T09:37:28.050Z,96816.53
2022-07-27T09:43:05.550Z,96815.63
2022-07-27T09:48:21.219Z,96818.00
2022-07-27T09:53:42.172Z,96819.81
2022-07-27T09:58:50.346Z,96816.44
2022-07-27T10:03:57.405Z,96806.72
2022-07-27T10:09:01.156Z,96812.47
2022-07-27T10:14:04.800Z,96808.44
2022-07-27T10:19:18.310Z,96802.44
2022-07-27T10:24:30.479Z,96799.16
2022-07-27T10:29:34.244Z,96792.84
2022-07-27T10:34:50.302Z,96797.16
2022-07-27T10:40:08.066Z,96786.25
2022-07-27T10:45:16.585Z,96792.75
2022-07-27T10:50:21.627Z,96788.38
2022-07-27T10:55:30.896Z,96789.44
2022-07-27T11:00:54.641Z,96783.75
2022-07-27T11:06:22.013Z,96777.81
2022-07-27T11:11:26.977Z,96789.91
2022-07-27T11:16:31.458Z,96783.59
2022-07-27T11:21:37.744Z,96777.22
2022-07-27T11:26:48.130Z,96782.22
2022-07-27T11:31:57.230Z,96786.41
2022-07-27T11:37:03.507Z,96785.59
2022-07-27T11:42:11.484Z,96772.97
2022-07-27T11:47:24.034Z,96768.91
2022-07-27T11:52:31.307Z,96765.69
2022-07-27T11:57:35.531Z,96771.06
2022-07-27T12:02:52.432Z,96766.09
2022-07-27T12:07:56.530Z,96760.81
2022-07-27T12:13:00.069Z,96754.38
2022-07-27T12:18:03.782Z,96757.84
2022-07-27T12:23:09.259Z,96758.22
2022-07-27T12:28:14.879Z,96752.50
2022-07-27T12:33:30.459Z,96755.69
2022-07-27T12:38:52.070Z,96752.31
2022-07-27T12:44:09.964Z,96752.53
2022-07-27T12:49:17.169Z,96748.63
2022-07-27T12:54:21.082Z,96757.88
2022-07-27T12:59:24.474Z,96750.91
2022-07-27T13:04:29.029Z,96744.59
2022-07-27T13:10:02.261Z,96743.00
2022-07-27T13:14:57.156Z,96750.66
2022-07-27T13:20:00.741Z,96745.59
2022-07-27T13:25:15.677Z,96745.94
2022-07-27T13:30:20.589Z,96752.59
2022-07-27T13:35:24.305Z,96749.31
2022-07-27T13:40:27.625Z,96739.75
2022-07-27T13:45:31.223Z,96730.09
2022-07-27T13:50:46.836Z,96737.50
2022-07-27T13:55:50.391Z,96740.41
2022-07-27T14:00:53.999Z,96742.63
2022-07-27T14:05:57.394Z,96741.28
2022-07-27T14:11:03.656Z,96740.94
2022-07-27T14:16:07.661Z,96745.50
2022-07-27T14:21:11.545Z,96737.88
2022-07-27T14:26:15.280Z,96729.91
2022-07-27T14:31:18.746Z,96733.09
2022-07-27T14:36:22.234Z,96734.34
2022-07-27T14:41:25.406Z,96742.44
2022-07-27T14:46:31.429Z,96741.53
2022-07-27T14:51:37.982Z,96740.19
2022-07-27T14:56:41.768Z,96745.25
2022-07-27T15:01:45.447Z,96745.69
2022-07-27T15:06:52.179Z,96742.38
2022-07-27T15:12:00.438Z,96752.22
2022-07-27T15:17:04.144Z,96754.19
2022-07-27T15:22:07.553Z,96752.75
2022-07-27T15:27:11.861Z,96748.97
2022-07-27T15:32:15.358Z,96755.34
2022-07-27T15:37:20.271Z,96749.88
2022-07-27T15:42:23.772Z,96752.84
2022-07-27T15:47:27.235Z,96763.63
2022-07-27T15:52:31.141Z,96766.25
2022-07-27T15:57:34.610Z,96767.94
2022-07-27T16:02:38.603Z,96777.78
2022-07-27T16:07:43.001Z,96776.19
2022-07-27T16:12:46.428Z,96787.28
2022-07-27T16:17:49.981Z,96783.81
2022-07-27T16:22:55.738Z,96781.88
2022-07-27T16:28:00.481Z,96789.38
2022-07-27T16:33:08.182Z,96793.47
2022-07-27T16:38:17.015Z,96786.16
2022-07-27T16:43:20.839Z,96784.63
2022-07-27T16:48:24.960Z,96786.00
2022-07-27T16:53:28.961Z,96790.44
2022-07-27T16:58:32.560Z,96787.44
2022-07-27T17:03:36.826Z,96778.63
2022-07-27T17:08:41.320Z,96780.78
2022-07-27T17:13:48.927Z,96782.88
2022-07-27T17:18:52.652Z,96788.13
2022-07-27T17:23:56.117Z,96789.09
2022-07-27T17:28:59.758Z,96787.72
2022-07-27T17:34:03.185Z,96789.53
2022-07-27T17:39:07.016Z,96789.72
2022-07-27T17:44:10.837Z,96798.94
2022-07-27T17:49:14.897Z,96802.34
2022-07-27T17:54:18.750Z,96808.00
2022-07-27T17:59:38.518Z,96797.72
2022-07-27T18:04:42.685Z,96803.06
2022-07-27T18:09:52.589Z,96805.66
2022-07-27T18:14:57.021Z,96813.41
2022-07-27T18:20:00.654Z,96811.00
2022-07-27T18:25:05.940Z,96808.94
2022-07-27T18:30:09.821Z,96816.66
2022-07-27T18:35:14.167Z,96807.50
2022-07-27T18:40:17.744Z,96819.91
2022-07-27T18:45:21.370Z,96826.81
2022-07-27T18:50:28.239Z,96833.41
2022-07-27T18:55:32.048Z,96825.09
2022-07-27T19:00:35.648Z,96820.72
2022-07-27T19:05:41.359Z,96818.66
2022-07-27T19:10:46.188Z,96819.81
2022-07-27T19:15:50.205Z,96819.66
2022-07-27T19:20:53.452Z,96804.72
2022-07-27T19:25:56.707Z,96823.06
2022-07-27T19:31:00.115Z,96825.00
2022-07-27T19:36:03.820Z,96823.69
2022-07-27T19:41:07.716Z,96813.44
2022-07-27T19:46:11.234Z,96815.69
2022-07-27T19:51:14.942Z,96810.88
2022-07-27T19:56:18.471Z,96815.91
2022-07-27T20:01:22.151Z,96810.72
2022-07-27T20:06:26.591Z,96811.06
2022-07-27T20:11:30.528Z,96811.41
2022-07-27T20:16:34.480Z,96804.66
2022-07-27T20:21:39.847Z,96812.38
2022-07-27T20:26:49.047Z,96805.78
2022-07-27T20:31:55.405Z,96807.25
2022-07-27T20:36:59.003Z,96813.84
2022-07-27T20:42:02.428Z,96815.00
2022-07-27T20:47:06.930Z,96825.09
2022-07-27T20:52:11.108Z,96823.50
2022-07-27T20:57:14.653Z,96837.94
2022-07-27T21:02:18.201Z,96826.22
2022-07-27T21:07:22.098Z,96824.97
2022-07-27T21:12:28.011Z,96832.81
2022-07-27T21:17:32.218Z,96828.94
2022-07-27T21:22:36.305Z,96828.81
2022-07-27T21:27:40.044Z,96822.56
2022-07-27T21:32:45.914Z,96824.00
2022-07-27T21:37:49.646Z,96822.41
2022-07-27T21:42:53.289Z,96823.88
2022-07-27T21:47:56.627Z,96825.31
2022-07-27T21:53:00.189Z,96824.38
2022-07-27T21:58:03.616Z,96825.47
2022-07-27T22:03:07.950Z,96824.22
2022-07-27T22:08:11.510Z,96822.91
2022-07-27T22:13:14.918Z,96823.88
2022-07-27T22:18:18.494Z,96819.56
2022-07-27T22:23:22.176Z,96817.97
2022-07-27T22:28:26.495Z,96807.69
2022-07-27T22:33:30.086Z,96809.13
2022-07-27T22:38:33.657Z,96811.06
2022-07-27T22:43:36.963Z,96820.38
2022-07-27T22:48:40.397Z,96821.50
2022-07-27T22:53:44.128Z,96812.03
2022-07-27T22:58:47.549Z,96808.84
2022-07-27T23:03:51.649Z,96804.81
2022-07-27T23:08:57.680Z,96804.34
2022-07-27T23:14:00.990Z,96794.56
2022-07-27T23:19:04.572Z,96792.97
2022-07-27T23:24:09.946Z,96799.84
2022-07-27T23:29:14.846Z,96798.25
2022-07-27T23:34:18.327Z,96805.19
2022-07-27T23:39:21.537Z,96794.91
2022-07-27T23:44:24.973Z,96798.59
2022-07-27T23:49:28.899Z,96797.94
2022-07-27T23:54:32.447Z,96803.59
2022-07-27T23:59:36.376Z,96801.38
